Time;durP1;ratioP1;P1;durP2;ratioP2;P2;SDS_P1;SDS_P2;PMS_P1;PMS_P2;Temp;Humidity;BMP_temperature;BMP_pressure;BME280_temperature;BME280_humidity;BME280_pressure;Samples;Min_cycle;Max_cycle;Signal;HPM_P1;HPM_P2
2024/01/16 00:02:20;;;;;;;;;;;102.50;2227.20;;;;;;4919601;29;19907;-81
2024/01/16 00:04:45;;;;;;;;;;;102.50;2227.20;;;;;;4916991;29;19911;-84
2024/01/16 00:07:11;;;;;;;;;;;102.50;2227.20;;;;;;4921183;29;19907;-83
2024/01/16 00:09:38;;;;;;;;;;;102.50;2227.20;;;;;;4916225;29;19907;-84
2024/01/16 00:12:03;;;;;;;;;;;77.70;2227.20;;;;;;4937470;29;19961;-81
2024/01/16 00:14:29;;;;;;;;;;;102.40;2227.20;;;;;;4929302;29;19906;-84
2024/01/16 00:16:55;;;;;;;;;;;102.50;2227.20;;;;;;4922739;29;19973;-85
2024/01/16 00:19:20;;;;;;;;;;;102.50;2227.20;;;;;;4920116;29;19906;-85
2024/01/16 00:21:46;;;;;;;;;;;102.50;2227.20;;;;;;4906438;29;19918;-84
2024/01/16 00:24:12;;;;;;;;;;;102.50;2227.20;;;;;;4921352;29;19907;-85
2024/01/16 00:26:38;;;;;;;;;;;77.70;2227.20;;;;;;4912603;29;19957;-85
2024/01/16 00:29:04;;;;;;;;;;;77.70;2227.20;;;;;;4912525;29;20020;-85
2024/01/16 00:31:29;;;;;;;;;;;77.60;2227.20;;;;;;4920888;29;19910;-84
2024/01/16 00:33:55;;;;;;;;;;;77.60;2227.20;;;;;;4920952;29;19953;-82
2024/01/16 00:36:21;;;;;;;;;;;77.50;1894.40;;;;;;4930307;29;19950;-85
2024/01/16 00:38:46;;;;;;;;;;;77.50;2227.20;;;;;;4914660;29;19907;-85
2024/01/16 00:41:12;;;;;;;;;;;77.50;2022.40;;;;;;4918087;29;19907;-85
2024/01/16 00:43:38;;;;;;;;;;;77.50;2150.40;;;;;;4921443;29;19915;-84
2024/01/16 00:46:03;;;;;;;;;;;77.50;1868.80;;;;;;4940481;29;19914;-82
2024/01/16 00:48:29;;;;;;;;;;;77.50;1843.20;;;;;;4920767;29;20488;-85
2024/01/16 00:50:55;;;;;;;;;;;77.40;2073.60;;;;;;4920442;29;20050;-82
2024/01/16 00:53:20;;;;;;;;;;;77.50;2099.20;;;;;;4938461;29;19907;-83
2024/01/16 00:55:46;;;;;;;;;;;77.50;2124.80;;;;;;4939955;29;20080;-85
2024/01/16 00:58:12;;;;;;;;;;;77.50;2201.60;;;;;;4938872;29;19907;-84
2024/01/16 01:00:38;;;;;;;;;;;77.50;2176.00;;;;;;4921720;29;19910;-82
2024/01/16 01:03:04;;;;;;;;;;;77.50;2227.20;;;;;;4938781;29;20371;-83
2024/01/16 01:05:29;;;;;;;;;;;77.50;2150.40;;;;;;4938961;29;19914;-82
2024/01/16 01:07:55;;;;;;;;;;;77.60;2227.20;;;;;;4926829;29;19974;-82
2024/01/16 01:10:21;;;;;;;;;;;77.50;1996.80;;;;;;4943826;29;19895;-82
2024/01/16 01:12:46;;;;;;;;;;;77.60;2227.20;;;;;;4950890;28;20006;-85
2024/01/16 01:15:13;;;;;;;;;;;77.60;1920.00;;;;;;4923089;29;19907;-82
2024/01/16 01:17:39;;;;;;;;;;;77.60;2227.20;;;;;;4921613;29;19958;-83
2024/01/16 01:20:06;;;;;;;;;;;77.70;2227.20;;;;;;4921640;29;19987;-85
2024/01/16 01:22:31;;;;;;;;;;;77.70;2227.20;;;;;;4921962;29;19956;-82
2024/01/16 01:24:57;;;;;;;;;;;77.70;2227.20;;;;;;4921101;29;19915;-85
2024/01/16 01:27:22;;;;;;;;;;;77.60;2227.20;;;;;;4921496;29;20380;-85
2024/01/16 01:29:48;;;;;;;;;;;77.70;2227.20;;;;;;4940904;29;19930;-81
2024/01/16 01:32:14;;;;;;;;;;;77.70;2227.20;;;;;;4916040;29;19907;-82
2024/01/16 01:34:41;;;;;;;;;;;102.40;2227.20;;;;;;4922786;29;19933;-82
2024/01/16 01:37:07;;;;;;;;;;;102.40;2227.20;;;;;;4924512;29;19907;-84
2024/01/16 01:39:32;;;;;;;;;;;102.40;2227.20;;;;;;4938679;29;19906;-83
2024/01/16 01:41:58;;;;;;;;;;;102.40;2227.20;;;;;;4914572;29;19955;-82
2024/01/16 01:44:24;;;;;;;;;;;102.40;2227.20;;;;;;4933230;29;20364;-84
2024/01/16 01:46:50;;;;;;;;;;;102.40;2227.20;;;;;;4933660;29;20368;-82
2024/01/16 01:49:16;;;;;;;;;;;102.40;2227.20;;;;;;4926024;29;19934;-85
2024/01/16 01:51:42;;;;;;;;;;;77.70;2227.20;;;;;;4923696;29;19961;-86
2024/01/16 01:54:09;;;;;;;;;;;77.70;2227.20;;;;;;4923809;29;19914;-85
2024/01/16 01:56:35;;;;;;;;;;;77.70;2227.20;;;;;;4923848;29;19993;-86
2024/01/16 01:59:01;;;;;;;;;;;77.70;2227.20;;;;;;4924135;29;19944;-85
2024/01/16 02:01:29;;;;;;;;;;;77.70;2227.20;;;;;;4936346;29;20403;-85
2024/01/16 02:03:55;;;;;;;;;;;77.70;2227.20;;;;;;4923556;29;19907;-86
2024/01/16 02:06:20;;;;;;;;;;;102.40;2227.20;;;;;;4923524;29;19918;-85
2024/01/16 02:08:46;;;;;;;;;;;102.40;2227.20;;;;;;4940522;29;19906;-84
2024/01/16 02:11:13;;;;;;;;;;;77.70;2227.20;;;;;;4923129;29;19913;-86
2024/01/16 02:13:39;;;;;;;;;;;77.70;2227.20;;;;;;4948644;29;19945;-83
2024/01/16 02:16:05;;;;;;;;;;;77.70;2227.20;;;;;;4938862;29;19961;-85
2024/01/16 02:18:31;;;;;;;;;;;77.70;2227.20;;;;;;4929460;29;19963;-85
2024/01/16 02:21:03;;;;;;;;;;;77.70;2227.20;;;;;;4922654;29;19915;-86
2024/01/16 02:23:31;;;;;;;;;;;77.70;2227.20;;;;;;4923441;29;19907;-85
2024/01/16 02:25:56;;;;;;;;;;;77.70;2227.20;;;;;;4923123;29;19915;-82
2024/01/16 02:28:23;;;;;;;;;;;77.70;2227.20;;;;;;4923147;29;19977;-86
2024/01/16 02:30:49;;;;;;;;;;;102.40;2227.20;;;;;;4923192;29;19907;-86
2024/01/16 02:33:14;;;;;;;;;;;102.40;2227.20;;;;;;4922915;29;19911;-82
2024/01/16 02:35:40;;;;;;;;;;;102.40;2227.20;;;;;;4922183;29;19913;-86
2024/01/16 02:38:05;;;;;;;;;;;102.40;2227.20;;;;;;4923197;29;19914;-86
2024/01/16 02:40:31;;;;;;;;;;;102.40;2227.20;;;;;;4922384;29;19997;-86
2024/01/16 02:42:58;;;;;;;;;;;102.40;2227.20;;;;;;4923039;29;19906;-82
2024/01/16 02:45:23;;;;;;;;;;;77.70;2227.20;;;;;;4935081;29;19910;-86
2024/01/16 02:47:49;;;;;;;;;;;102.40;2227.20;;;;;;4922971;29;19914;-86
2024/01/16 02:50:15;;;;;;;;;;;102.40;2227.20;;;;;;4921823;29;19913;-85
2024/01/16 02:52:40;;;;;;;;;;;102.40;2227.20;;;;;;4922685;29;20348;-82
2024/01/16 02:55:06;;;;;;;;;;;77.70;2227.20;;;;;;4922848;29;19934;-86
2024/01/16 02:57:32;;;;;;;;;;;77.70;2227.20;;;;;;4922989;29;20261;-86
2024/01/16 02:59:57;;;;;;;;;;;77.70;2227.20;;;;;;4923292;29;19965;-85
2024/01/16 03:02:23;;;;;;;;;;;102.40;2227.20;;;;;;4931969;29;19907;-85
2024/01/16 03:04:49;;;;;;;;;;;102.40;2227.20;;;;;;4940896;29;19911;-84
2024/01/16 03:07:15;;;;;;;;;;;102.40;2227.20;;;;;;4922647;29;19961;-82
2024/01/16 03:09:41;;;;;;;;;;;77.70;2227.20;;;;;;4922437;29;19910;-82
2024/01/16 03:12:06;;;;;;;;;;;77.70;2227.20;;;;;;4931572;29;19906;-83
2024/01/16 03:14:34;;;;;;;;;;;77.70;2227.20;;;;;;4925684;29;19915;-82
2024/01/16 03:17:02;;;;;;;;;;;77.70;2227.20;;;;;;4939263;29;19910;-85
2024/01/16 03:19:28;;;;;;;;;;;77.70;2227.20;;;;;;4938904;29;19949;-83
2024/01/16 03:21:54;;;;;;;;;;;77.60;2227.20;;;;;;4922219;29;19919;-83
2024/01/16 03:24:20;;;;;;;;;;;77.70;2227.20;;;;;;4922258;29;20415;-84
2024/01/16 03:26:45;;;;;;;;;;;77.60;2227.20;;;;;;4922197;29;19946;-82
2024/01/16 03:29:11;;;;;;;;;;;77.60;2227.20;;;;;;4921801;29;19907;-86
2024/01/16 03:31:36;;;;;;;;;;;77.60;2227.20;;;;;;4922168;29;19914;-85
2024/01/16 03:34:02;;;;;;;;;;;77.60;2227.20;;;;;;4928062;29;19907;-87
2024/01/16 03:36:28;;;;;;;;;;;77.60;2227.20;;;;;;4930514;29;19977;-83
2024/01/16 03:38:53;;;;;;;;;;;77.60;2227.20;;;;;;4926657;29;19907;-87
2024/01/16 03:41:19;;;;;;;;;;;77.70;2227.20;;;;;;4922871;29;19907;-88
2024/01/16 03:43:44;;;;;;;;;;;77.70;2227.20;;;;;;4922595;29;19911;-87
2024/01/16 03:46:10;;;;;;;;;;;102.40;2227.20;;;;;;4921212;29;19914;-87
2024/01/16 03:48:36;;;;;;;;;;;102.50;2227.20;;;;;;4934400;29;20383;-86
2024/01/16 03:51:02;;;;;;;;;;;102.50;2227.20;;;;;;4921167;29;19906;-87
2024/01/16 03:53:28;;;;;;;;;;;102.40;2227.20;;;;;;4920997;29;20432;-84
2024/01/16 03:55:53;;;;;;;;;;;102.50;2227.20;;;;;;4921780;29;19946;-83
2024/01/16 03:58:19;;;;;;;;;;;102.40;2227.20;;;;;;4933903;29;20279;-88
2024/01/16 04:00:45;;;;;;;;;;;102.50;2227.20;;;;;;4938568;29;19914;-80
2024/01/16 04:03:11;;;;;;;;;;;102.60;2227.20;;;;;;4920688;29;20289;-84
2024/01/16 04:05:37;;;;;;;;;;;102.70;2227.20;;;;;;4920382;29;19915;-80
2024/01/16 04:08:03;;;;;;;;;;;102.70;2227.20;;;;;;4920283;29;19918;-80
2024/01/16 04:10:28;;;;;;;;;;;102.70;2227.20;;;;;;4921321;29;19907;-83
2024/01/16 04:12:54;;;;;;;;;;;102.70;2227.20;;;;;;4919520;29;19951;-86
2024/01/16 04:15:19;;;;;;;;;;;102.60;2227.20;;;;;;4903567;29;20254;-85
2024/01/16 04:17:45;;;;;;;;;;;102.60;2227.20;;;;;;4920919;29;20008;-86
2024/01/16 04:20:11;;;;;;;;;;;102.60;2227.20;;;;;;4933436;29;20406;-86
2024/01/16 04:22:36;;;;;;;;;;;102.80;2227.20;;;;;;4919345;29;19919;-82
2024/01/16 04:25:04;;;;;;;;;;;102.90;2227.20;;;;;;4923641;29;19958;-82
2024/01/16 04:27:30;;;;;;;;;;;102.90;2227.20;;;;;;4941924;29;19959;-84
2024/01/16 04:29:56;;;;;;;;;;;102.70;2227.20;;;;;;4942833;29;19902;-83
2024/01/16 04:32:21;;;;;;;;;;;102.60;2227.20;;;;;;4923064;29;19907;-87
2024/01/16 04:34:47;;;;;;;;;;;102.50;2227.20;;;;;;4920801;29;20424;-85
2024/01/16 04:37:13;;;;;;;;;;;102.50;2227.20;;;;;;4920293;29;19911;-80
2024/01/16 04:39:38;;;;;;;;;;;102.50;2227.20;;;;;;4920515;29;19907;-80
2024/01/16 04:42:04;;;;;;;;;;;102.50;2227.20;;;;;;4919894;29;19997;-88
2024/01/16 04:44:29;;;;;;;;;;;102.50;2227.20;;;;;;4920677;29;20348;-88
2024/01/16 04:46:55;;;;;;;;;;;102.50;2227.20;;;;;;4918910;29;20002;-86
2024/01/16 04:49:21;;;;;;;;;;;102.50;2227.20;;;;;;4920863;29;19906;-82
2024/01/16 04:51:47;;;;;;;;;;;102.50;2227.20;;;;;;4920079;29;19914;-87
2024/01/16 04:54:12;;;;;;;;;;;102.50;2227.20;;;;;;4920337;29;19914;-80
2024/01/16 04:56:38;;;;;;;;;;;102.50;2227.20;;;;;;4920171;29;19911;-85
2024/01/16 04:59:04;;;;;;;;;;;102.60;2227.20;;;;;;4920724;29;19946;-87
2024/01/16 05:01:29;;;;;;;;;;;102.60;2227.20;;;;;;4937620;29;19914;-81
2024/01/16 05:03:55;;;;;;;;;;;102.50;2227.20;;;;;;4920848;29;19907;-87
2024/01/16 05:06:21;;;;;;;;;;;102.50;2227.20;;;;;;4920336;29;20001;-87
2024/01/16 05:08:46;;;;;;;;;;;77.70;2227.20;;;;;;4921030;29;19914;-80
2024/01/16 05:11:12;;;;;;;;;;;77.70;2227.20;;;;;;4920333;29;19907;-86
2024/01/16 05:13:38;;;;;;;;;;;102.40;2227.20;;;;;;4922451;29;20288;-85
2024/01/16 05:16:03;;;;;;;;;;;77.60;2227.20;;;;;;4925924;29;19997;-88
2024/01/16 05:18:29;;;;;;;;;;;77.60;2227.20;;;;;;4915007;29;20359;-87
2024/01/16 05:20:56;;;;;;;;;;;77.60;2227.20;;;;;;4926393;29;19915;-85
2024/01/16 05:23:22;;;;;;;;;;;77.70;2227.20;;;;;;4943649;29;19906;-88
2024/01/16 05:25:47;;;;;;;;;;;77.50;2227.20;;;;;;4926140;29;19915;-81
2024/01/16 05:28:13;;;;;;;;;;;77.70;2227.20;;;;;;4933239;29;19913;-81
2024/01/16 05:30:38;;;;;;;;;;;77.70;2227.20;;;;;;4944199;29;19961;-80
2024/01/16 05:33:04;;;;;;;;;;;77.70;2227.20;;;;;;4933473;29;20018;-87
2024/01/16 05:35:29;;;;;;;;;;;77.70;2227.20;;;;;;4931528;29;19906;-87
2024/01/16 05:37:56;;;;;;;;;;;102.40;2227.20;;;;;;4914852;29;19907;-83
2024/01/16 05:40:22;;;;;;;;;;;102.40;2227.20;;;;;;4955532;29;20423;-88
2024/01/16 05:42:50;;;;;;;;;;;102.40;2227.20;;;;;;4931531;29;19906;-80
2024/01/16 05:45:16;;;;;;;;;;;102.50;2227.20;;;;;;4926578;29;20421;-80
2024/01/16 05:47:42;;;;;;;;;;;102.50;2227.20;;;;;;4930260;29;19907;-84
2024/01/16 05:50:08;;;;;;;;;;;102.50;2227.20;;;;;;4936972;29;19910;-81
2024/01/16 05:52:34;;;;;;;;;;;102.60;2227.20;;;;;;4938824;29;19914;-81
2024/01/16 05:55:00;;;;;;;;;;;102.50;2227.20;;;;;;4926749;29;19906;-86
2024/01/16 05:57:26;;;;;;;;;;;102.50;2227.20;;;;;;4937773;29;19913;-85
2024/01/16 05:59:52;;;;;;;;;;;102.50;2227.20;;;;;;4926246;29;20376;-82
2024/01/16 06:02:18;;;;;;;;;;;102.40;2227.20;;;;;;4943279;29;20368;-82
2024/01/16 06:04:43;;;;;;;;;;;77.70;2227.20;;;;;;4925896;29;19907;-83
2024/01/16 06:07:09;;;;;;;;;;;77.70;2227.20;;;;;;4921102;29;19988;-82
2024/01/16 06:09:39;;;;;;;;;;;77.70;2227.20;;;;;;4917395;29;20005;-79
2024/01/16 06:12:06;;;;;;;;;;;102.40;2227.20;;;;;;4922440;29;19907;-79
2024/01/16 06:14:32;;;;;;;;;;;77.70;2227.20;;;;;;4925165;29;19910;-80
2024/01/16 06:16:58;;;;;;;;;;;102.40;2227.20;;;;;;4942397;29;19911;-82
2024/01/16 06:19:24;;;;;;;;;;;77.60;2227.20;;;;;;4925981;29;19934;-82
2024/01/16 06:21:49;;;;;;;;;;;77.50;2227.20;;;;;;4924678;29;19929;-80
2024/01/16 06:24:15;;;;;;;;;;;77.40;2227.20;;;;;;4916509;29;19961;-80
2024/01/16 06:26:42;;;;;;;;;;;77.40;2227.20;;;;;;4919657;29;19921;-81
2024/01/16 06:29:07;;;;;;;;;;;77.40;2227.20;;;;;;4922583;29;19907;-81
2024/01/16 06:31:33;;;;;;;;;;;77.40;2227.20;;;;;;4922900;29;19907;-81
2024/01/16 06:33:59;;;;;;;;;;;77.40;2227.20;;;;;;4922645;29;19907;-84
2024/01/16 06:36:24;;;;;;;;;;;77.40;2227.20;;;;;;4922330;29;19907;-84
2024/01/16 06:38:50;;;;;;;;;;;77.40;2227.20;;;;;;4939043;29;19907;-85
2024/01/16 06:41:16;;;;;;;;;;;77.30;2227.20;;;;;;4922172;29;19914;-86
2024/01/16 06:43:41;;;;;;;;;;;77.20;2227.20;;;;;;4913368;29;19914;-85
2024/01/16 06:46:07;;;;;;;;;;;102.40;2227.20;;;;;;4933624;29;20277;-82
2024/01/16 06:48:34;;;;;;;;;;;77.30;2227.20;;;;;;4921645;29;19922;-84
2024/01/16 06:51:01;;;;;;;;;;;77.30;2227.20;;;;;;4920045;29;20347;-83
2024/01/16 06:53:26;;;;;;;;;;;77.40;2227.20;;;;;;4917149;29;19919;-82
2024/01/16 06:55:52;;;;;;;;;;;77.50;2227.20;;;;;;4921650;29;20258;-84
2024/01/16 06:58:17;;;;;;;;;;;77.50;2227.20;;;;;;4921433;29;20404;-83
2024/01/16 07:00:46;;;;;;;;;;;77.50;2227.20;;;;;;4920313;29;19957;-82
2024/01/16 07:03:12;;;;;;;;;;;77.40;2227.20;;;;;;4921400;29;19915;-82
2024/01/16 07:05:40;;;;;;;;;;;77.30;2227.20;;;;;;4938821;29;20070;-82
2024/01/16 07:08:06;;;;;;;;;;;77.30;2227.20;;;;;;4919817;29;19906;-81
2024/01/16 07:10:32;;;;;;;;;;;77.00;2227.20;;;;;;4938532;29;19910;-82
2024/01/16 07:12:57;;;;;;;;;;;77.40;2227.20;;;;;;4918586;29;19961;-80
2024/01/16 07:15:23;;;;;;;;;;;77.40;2227.20;;;;;;4921734;29;19928;-80
2024/01/16 07:17:48;;;;;;;;;;;77.30;2227.20;;;;;;4926145;29;19907;-82
2024/01/16 07:20:14;;;;;;;;;;;77.20;2227.20;;;;;;4926194;29;19915;-83
2024/01/16 07:22:40;;;;;;;;;;;77.10;2227.20;;;;;;4924085;29;19923;-81
2024/01/16 07:25:06;;;;;;;;;;;77.30;2227.20;;;;;;4922975;29;20005;-81
2024/01/16 07:27:32;;;;;;;;;;;77.20;2227.20;;;;;;4921288;29;19950;-81
2024/01/16 07:29:57;;;;;;;;;;;77.20;2227.20;;;;;;4920784;29;20281;-82
2024/01/16 07:32:23;;;;;;;;;;;77.30;2227.20;;;;;;4919178;29;19958;-85
2024/01/16 07:34:50;;;;;;;;;;;77.20;2227.20;;;;;;4921718;29;19929;-84
2024/01/16 07:37:15;;;;;;;;;;;77.10;2227.20;;;;;;4921133;29;19914;-82
2024/01/16 07:39:41;;;;;;;;;;;77.10;2227.20;;;;;;4916300;29;19907;-85
2024/01/16 07:42:07;;;;;;;;;;;77.20;2227.20;;;;;;4936186;29;19910;-86
2024/01/16 07:44:33;;;;;;;;;;;77.20;2227.20;;;;;;4953062;29;19918;-80
2024/01/16 07:46:59;;;;;;;;;;;77.30;2227.20;;;;;;4939066;29;19925;-87
2024/01/16 07:49:24;;;;;;;;;;;77.50;2227.20;;;;;;4938174;29;19907;-84
2024/01/16 07:51:50;;;;;;;;;;;77.60;2227.20;;;;;;4921005;29;19914;-85
2024/01/16 07:54:15;;;;;;;;;;;77.70;2227.20;;;;;;4908540;29;19911;-85
2024/01/16 07:56:41;;;;;;;;;;;102.40;2227.20;;;;;;4923218;29;19907;-86
2024/01/16 07:59:07;;;;;;;;;;;77.70;2227.20;;;;;;4920820;29;20357;-82
2024/01/16 08:01:32;;;;;;;;;;;77.70;2227.20;;;;;;4920687;29;19906;-84
2024/01/16 08:03:58;;;;;;;;;;;77.70;2227.20;;;;;;4920674;29;19915;-85
2024/01/16 08:06:24;;;;;;;;;;;77.70;2227.20;;;;;;4913940;29;19918;-82
2024/01/16 08:08:50;;;;;;;;;;;77.70;2227.20;;;;;;4920748;29;20345;-84
2024/01/16 08:11:16;;;;;;;;;;;102.40;2227.20;;;;;;4919046;29;20006;-82
2024/01/16 08:13:41;;;;;;;;;;;102.40;2227.20;;;;;;4920796;29;19946;-83
2024/01/16 08:16:07;;;;;;;;;;;102.50;2227.20;;;;;;4920284;29;19911;-83
2024/01/16 08:18:33;;;;;;;;;;;102.40;2227.20;;;;;;4921034;29;19907;-85
2024/01/16 08:20:59;;;;;;;;;;;102.40;2227.20;;;;;;4915925;29;19958;-84
2024/01/16 08:23:24;;;;;;;;;;;102.50;2227.20;;;;;;4917533;29;19910;-87
2024/01/16 08:25:51;;;;;;;;;;;102.60;2227.20;;;;;;4936986;29;19933;-79
2024/01/16 08:28:17;;;;;;;;;;;102.50;2227.20;;;;;;4918720;29;19906;-85
2024/01/16 08:30:43;;;;;;;;;;;102.50;2227.20;;;;;;4920643;29;20272;-86
2024/01/16 08:33:08;;;;;;;;;;;102.50;2227.20;;;;;;4926692;29;19910;-83
2024/01/16 08:35:34;;;;;;;;;;;102.50;2227.20;;;;;;4921593;29;19913;-85
2024/01/16 08:37:59;;;;;;;;;;;102.60;2227.20;;;;;;4920658;29;20042;-82
2024/01/16 08:40:25;;;;;;;;;;;102.50;2227.20;;;;;;4936993;29;20300;-81
2024/01/16 08:42:54;;;;;;;;;;;102.50;2227.20;;;;;;4937202;29;19907;-85
2024/01/16 08:45:20;;;;;;;;;;;102.70;2227.20;;;;;;4919689;29;19915;-82
2024/01/16 08:47:46;;;;;;;;;;;102.80;2227.20;;;;;;4916673;29;20284;-83
2024/01/16 08:50:12;;;;;;;;;;;102.80;2227.20;;;;;;4916020;29;19918;-82
2024/01/16 08:52:38;;;;;;;;;;;102.90;2227.20;;;;;;4916426;29;19929;-81
2024/01/16 08:55:03;;;;;;;;;;;102.90;2227.20;;;;;;4916729;29;19915;-82
2024/01/16 08:57:29;;;;;;;;;;;103.00;2227.20;;;;;;4919550;29;20368;-82
2024/01/16 08:59:55;;;;;;;;;;;102.90;2227.20;;;;;;4920128;29;19910;-81
2024/01/16 09:02:21;;;;;;;;;;;102.90;2227.20;;;;;;4918039;29;19910;-84
2024/01/16 09:04:47;;;;;;;;;;;103.00;2227.20;;;;;;4919145;29;20001;-83
2024/01/16 09:07:15;;;;;;;;;;;103.00;2227.20;;;;;;4919560;29;20324;-83
2024/01/16 09:09:42;;;;;;;;;;;103.00;2227.20;;;;;;4921303;29;20023;-82
2024/01/16 09:12:08;;;;;;;;;;;103.00;2227.20;;;;;;4916941;29;19918;-83
2024/01/16 09:14:34;;;;;;;;;;;103.10;2227.20;;;;;;4912572;29;19910;-83
2024/01/16 09:16:59;;;;;;;;;;;103.20;2227.20;;;;;;4919439;29;19929;-85
2024/01/16 09:19:25;;;;;;;;;;;103.20;2227.20;;;;;;4916573;29;19919;-88
2024/01/16 09:21:50;;;;;;;;;;;128.00;2252.80;;;;;;4934357;29;20369;-82
2024/01/16 09:24:16;;;;;;;;;;;128.20;2252.80;;;;;;4918748;29;19907;-86
2024/01/16 09:26:42;;;;;;;;;;;128.40;2252.80;;;;;;4936083;29;19918;-83
2024/01/16 09:29:09;;;;;;;;;;;128.50;2252.80;;;;;;4915797;29;19950;-82
2024/01/16 09:31:35;;;;;;;;;;;128.40;2252.80;;;;;;4916068;29;19917;-79
2024/01/16 09:34:01;;;;;;;;;;;128.70;2252.80;;;;;;4919518;29;19907;-81
2024/01/16 09:36:27;;;;;;;;;;;128.60;2252.80;;;;;;4919750;29;19907;-81
2024/01/16 09:38:52;;;;;;;;;;;153.70;2252.80;;;;;;4908946;29;19914;-84
2024/01/16 09:41:18;;;;;;;;;;;154.00;2252.80;;;;;;4916352;29;20373;-85
2024/01/16 09:43:44;;;;;;;;;;;154.30;2252.80;;;;;;4908821;29;19915;-85
2024/01/16 09:46:10;;;;;;;;;;;154.50;2252.80;;;;;;4920899;29;19915;-81
2024/01/16 09:48:36;;;;;;;;;;;154.40;2252.80;;;;;;4919895;29;19930;-83
2024/01/16 09:51:02;;;;;;;;;;;154.40;2252.80;;;;;;4919026;29;20321;-79
2024/01/16 09:53:28;;;;;;;;;;;179.30;2252.80;;;;;;4919587;29;19918;-87
2024/01/16 09:55:57;;;;;;;;;;;179.50;2252.80;;;;;;4912836;29;19908;-83
2024/01/16 09:58:23;;;;;;;;;;;179.80;2252.80;;;;;;4917577;29;19914;-84
2024/01/16 10:00:49;;;;;;;;;;;204.80;2252.80;;;;;;4926650;29;19907;-82
2024/01/16 10:03:15;;;;;;;;;;;204.90;2252.80;;;;;;4939904;29;19910;-84
2024/01/16 10:05:42;;;;;;;;;;;205.20;2252.80;;;;;;4930099;29;20012;-84
2024/01/16 10:08:08;;;;;;;;;;;;;;;;;;4923787;29;19931;-82
2024/01/16 10:10:34;;;;;;;;;;;205.60;2252.80;;;;;;4922500;29;19910;-83
2024/01/16 10:13:00;;;;;;;;;;;230.70;2252.80;;;;;;4922181;29;20332;-82
2024/01/16 10:15:25;;;;;;;;;;;230.90;2252.80;;;;;;4922289;29;19911;-79
2024/01/16 10:17:52;;;;;;;;;;;256.00;2252.80;;;;;;4922309;29;19935;-81
2024/01/16 10:20:31;;;;;;;;;;;256.30;2252.80;;;;;;4922724;29;19914;-83
2024/01/16 10:22:58;;;;;;;;;;;256.60;2252.80;;;;;;4921299;29;20010;-80
2024/01/16 10:25:24;;;;;;;;;;;256.90;2252.80;;;;;;4922535;29;19919;-80
2024/01/16 10:28:02;;;;;;;;;;;256.40;2252.80;;;;;;4919886;29;20242;-82
2024/01/16 10:30:28;;;;;;;;;;;256.30;2252.80;;;;;;4917972;29;19907;-81
2024/01/16 10:32:53;;;;;;;;;;;256.90;2252.80;;;;;;4917974;29;19914;-81
2024/01/16 10:35:20;;;;;;;;;;;281.80;2278.40;;;;;;4926063;29;19907;-83
2024/01/16 10:37:47;;;;;;;;;;;282.20;2278.40;;;;;;4915871;29;19997;-83
2024/01/16 10:40:18;;;;;;;;;;;282.40;2278.40;;;;;;4923003;29;19954;-86
2024/01/16 10:42:46;;;;;;;;;;;307.30;2252.80;;;;;;4918797;29;19911;-86
2024/01/16 10:45:17;;;;;;;;;;;282.40;2176.00;;;;;;4922916;29;20369;-80
2024/01/16 10:47:43;;;;;;;;;;;282.00;2278.40;;;;;;4912313;29;20373;-83
2024/01/16 10:50:09;;;;;;;;;;;282.00;2278.40;;;;;;4922737;29;19911;-82
2024/01/16 10:52:35;;;;;;;;;;;282.50;2150.40;;;;;;4920016;29;19938;-82
2024/01/16 10:55:04;;;;;;;;;;;282.40;2124.80;;;;;;4917873;29;19906;-81
2024/01/16 10:57:31;;;;;;;;;;;282.50;2048.00;;;;;;4944163;29;19914;-82
2024/01/16 11:00:08;;;;;;;;;;;307.40;2073.60;;;;;;4944619;29;19895;-79
2024/01/16 11:02:38;;;;;;;;;;;307.30;2022.40;;;;;;4932014;29;20304;-81
2024/01/16 11:05:05;;;;;;;;;;;307.60;2048.00;;;;;;4937008;29;20012;-82
2024/01/16 11:07:32;;;;;;;;;;;307.60;1996.80;;;;;;4938068;29;19913;-82
2024/01/16 11:09:58;;;;;;;;;;;307.60;1945.60;;;;;;4932324;29;19915;-81
2024/01/16 11:12:25;;;;;;;;;;;307.50;1945.60;;;;;;4937542;29;19914;-84
2024/01/16 11:14:52;;;;;;;;;;;307.50;1817.60;;;;;;4910570;29;20364;-85
2024/01/16 11:17:21;;;;;;;;;;;307.60;1817.60;;;;;;4937820;29;19913;-83
2024/01/16 11:19:48;;;;;;;;;;;307.40;1792.00;;;;;;4920591;29;19906;-79
2024/01/16 11:22:14;;;;;;;;;;;307.50;1792.00;;;;;;4921120;29;19922;-84
2024/01/16 11:24:40;;;;;;;;;;;307.80;1817.60;;;;;;4923437;29;20522;-80
2024/01/16 11:27:05;;;;;;;;;;;307.70;1766.40;;;;;;4925735;29;19954;-83
2024/01/16 11:29:31;;;;;;;;;;;307.60;1817.60;;;;;;4917349;29;20357;-85
2024/01/16 11:31:57;;;;;;;;;;;307.80;1843.20;;;;;;4920208;29;19907;-84
2024/01/16 11:34:41;;;;;;;;;;;307.50;1740.80;;;;;;4922707;29;19920;-83
2024/01/16 11:37:11;;;;;;;;;;;282.50;1715.20;;;;;;4920957;29;19910;-82
2024/01/16 11:39:36;;;;;;;;;;;307.30;1766.40;;;;;;4916064;29;19911;-82
2024/01/16 11:42:02;;;;;;;;;;;282.50;1715.20;;;;;;4920918;29;20376;-83
2024/01/16 11:44:46;;;;;;;;;;;282.50;1715.20;;;;;;4920937;29;19950;-83
2024/01/16 11:47:16;;;;;;;;;;;282.50;1664.00;;;;;;4913714;29;19938;-83
2024/01/16 11:49:42;;;;;;;;;;;282.20;1740.80;;;;;;4914714;29;19906;-83
2024/01/16 11:52:08;;;;;;;;;;;282.10;1715.20;;;;;;4919323;29;20293;-82
2024/01/16 11:54:34;;;;;;;;;;;282.00;1740.80;;;;;;4935168;29;19942;-83
2024/01/16 11:57:09;;;;;;;;;;;282.00;1792.00;;;;;;4934421;29;19907;-84
2024/01/16 11:59:41;;;;;;;;;;;281.80;1843.20;;;;;;4918653;29;19907;-82
2024/01/16 12:02:10;;;;;;;;;;;281.70;1843.20;;;;;;4936805;29;19965;-82
2024/01/16 12:04:35;;;;;;;;;;;281.70;1868.80;;;;;;4920533;29;20007;-83
2024/01/16 12:07:01;;;;;;;;;;;256.90;1894.40;;;;;;4916976;29;19918;-82
2024/01/16 12:09:28;;;;;;;;;;;256.80;1843.20;;;;;;4936067;29;19998;-81
2024/01/16 12:12:03;;;;;;;;;;;256.60;1868.80;;;;;;4918987;29;20352;-83
2024/01/16 12:14:29;;;;;;;;;;;256.60;1868.80;;;;;;4938049;29;20419;-84
2024/01/16 12:17:11;;;;;;;;;;;256.70;1817.60;;;;;;4917984;29;20357;-81
2024/01/16 12:19:39;;;;;;;;;;;256.20;1843.20;;;;;;4922982;29;19932;-83
2024/01/16 12:22:08;;;;;;;;;;;256.20;1868.80;;;;;;4920491;29;19986;-84
2024/01/16 12:24:33;;;;;;;;;;;256.00;1843.20;;;;;;4930975;29;19913;-83
2024/01/16 12:26:59;;;;;;;;;;;231.30;1894.40;;;;;;4918112;29;19914;-83
2024/01/16 12:29:24;;;;;;;;;;;231.20;1920.00;;;;;;4918868;29;19913;-86
2024/01/16 12:31:50;;;;;;;;;;;231.10;1920.00;;;;;;4916355;29;19958;-86
2024/01/16 12:34:15;;;;;;;;;;;231.10;1894.40;;;;;;4919220;29;20269;-86
2024/01/16 12:36:41;;;;;;;;;;;230.90;1868.80;;;;;;4936891;29;19906;-88
2024/01/16 12:39:11;;;;;;;;;;;230.90;1894.40;;;;;;4936987;29;20384;-87
2024/01/16 12:41:40;;;;;;;;;;;230.90;1920.00;;;;;;4937256;29;19906;-86
2024/01/16 12:44:05;;;;;;;;;;;231.00;1920.00;;;;;;4937227;29;19907;-88
2024/01/16 12:46:32;;;;;;;;;;;230.70;1868.80;;;;;;4919927;29;19926;-86
2024/01/16 12:49:05;;;;;;;;;;;230.60;1843.20;;;;;;4920584;29;19949;-86
2024/01/16 12:51:31;;;;;;;;;;;230.60;1843.20;;;;;;4937642;29;20006;-87
2024/01/16 12:54:16;;;;;;;;;;;230.50;1920.00;;;;;;4919846;29;19938;-81
2024/01/16 12:56:42;;;;;;;;;;;230.60;1971.20;;;;;;4907862;29;19907;-84
2024/01/16 12:59:12;;;;;;;;;;;230.50;1945.60;;;;;;4919866;29;19906;-83
2024/01/16 13:01:39;;;;;;;;;;;230.40;1920.00;;;;;;4919912;29;19961;-84
2024/01/16 13:04:05;;;;;;;;;;;230.40;1920.00;;;;;;4901485;29;19907;-83
2024/01/16 13:06:31;;;;;;;;;;;230.40;1920.00;;;;;;4920314;29;19915;-82
2024/01/16 13:09:10;;;;;;;;;;;205.70;1920.00;;;;;;4920397;29;19906;-84
2024/01/16 13:11:46;;;;;;;;;;;205.60;1920.00;;;;;;4916227;29;19931;-84
2024/01/16 13:14:12;;;;;;;;;;;205.70;1945.60;;;;;;4914327;29;20316;-82
2024/01/16 13:16:37;;;;;;;;;;;205.70;1971.20;;;;;;4918054;29;19911;-82
2024/01/16 13:19:05;;;;;;;;;;;205.70;1971.20;;;;;;4920143;29;19914;-84
2024/01/16 13:21:30;;;;;;;;;;;205.50;1945.60;;;;;;4918850;29;19985;-83
2024/01/16 13:23:56;;;;;;;;;;;205.50;2022.40;;;;;;4936719;29;19910;-83
2024/01/16 13:26:22;;;;;;;;;;;205.40;2099.20;;;;;;4935901;29;20054;-84
2024/01/16 13:28:47;;;;;;;;;;;205.30;2252.80;;;;;;4919708;29;20002;-84
2024/01/16 13:31:13;;;;;;;;;;;205.30;2252.80;;;;;;4933332;29;20046;-82
2024/01/16 13:33:39;;;;;;;;;;;205.30;2252.80;;;;;;4916213;29;19913;-83
2024/01/16 13:36:04;;;;;;;;;;;205.20;2252.80;;;;;;4919323;29;19922;-83
2024/01/16 13:38:30;;;;;;;;;;;205.20;2252.80;;;;;;4923546;29;19966;-82
2024/01/16 13:40:55;;;;;;;;;;;205.10;2252.80;;;;;;4923134;29;19910;-83